Ottertail, Minnesota
Current Conditions -  °F | °C
As of 9:34 AM on Thursday 30 Oct 2014 (Local Time) from KADC Reporting Station
Overcast Overcast  
Wind Chill: 36°   Ceiling: 1600
Heat Index: 36°   Visibility: 7mi
Dew Point: 34°   Wind: 3mph
Humidity: 93%   Direction: 350°N
Pressure: 30.1"   Gusts: NA
Location:  46.43°N, 95.56°W
Report Text: KADC 301434Z AUTO 35003KT 7SM OVC016 02/01 A3010 RMK AO2
Loading
Personal Weather Stations






























Interactive Weather Map
Tropical Storm Tracking
New forecast layout! Learn more

10-Day Weather Forecast

Advertisements
Track Severe Weather on mobile